sensor_id;sensor_type;location;lat;lon;timestamp;temperature;humidity
12223;DHT22;6174;49.058;8.524;2022-12-04T06:01:42;3.80;99.90
12223;DHT22;6174;49.058;8.524;2022-12-04T06:04:09;3.80;99.90
12223;DHT22;6174;49.058;8.524;2022-12-04T06:06:36;3.70;99.90
12223;DHT22;6174;49.058;8.524;2022-12-04T06:09:04;3.70;99.90
12223;DHT22;6174;49.058;8.524;2022-12-04T06:11:33;3.80;99.90
12223;DHT22;6174;49.058;8.524;2022-12-04T06:14:01;3.80;99.90
12223;DHT22;6174;49.058;8.524;2022-12-04T06:16:30;3.80;99.90
12223;DHT22;6174;49.058;8.524;2022-12-04T06:19:00;3.80;99.90
12223;DHT22;6174;49.058;8.524;2022-12-04T06:21:29;3.80;99.90
12223;DHT22;6174;49.058;8.524;2022-12-04T06:23:56;3.80;99.90
12223;DHT22;6174;49.058;8.524;2022-12-04T06:26:24;3.80;99.90
12223;DHT22;6174;49.058;8.524;2022-12-04T06:28:52;3.80;99.90
12223;DHT22;6174;49.058;8.524;2022-12-04T06:31:19;3.80;99.90
12223;DHT22;6174;49.058;8.524;2022-12-04T06:33:46;3.70;99.90
12223;DHT22;6174;49.058;8.524;2022-12-04T06:36:16;3.70;99.90
12223;DHT22;6174;49.058;8.524;2022-12-04T06:38:46;3.70;99.90
12223;DHT22;6174;49.058;8.524;2022-12-04T06:41:14;3.70;99.90
12223;DHT22;6174;49.058;8.524;2022-12-04T06:43:41;3.80;99.90
12223;DHT22;6174;49.058;8.524;2022-12-04T06:46:09;3.90;99.90
12223;DHT22;6174;49.058;8.524;2022-12-04T06:48:37;3.80;99.90
12223;DHT22;6174;49.058;8.524;2022-12-04T06:51:06;3.80;99.90
12223;DHT22;6174;49.058;8.524;2022-12-04T06:53:34;3.70;99.90
12223;DHT22;6174;49.058;8.524;2022-12-04T06:56:03;3.80;99.90
12223;DHT22;6174;49.058;8.524;2022-12-04T06:58:31;3.80;99.90
12223;DHT22;6174;49.058;8.524;2022-12-04T07:00:58;3.80;99.90
12223;DHT22;6174;49.058;8.524;2022-12-04T07:03:25;3.90;99.90
12223;DHT22;6174;49.058;8.524;2022-12-04T07:05:51;3.90;99.90
12223;DHT22;6174;49.058;8.524;2022-12-04T07:08:18;3.80;99.90
12223;DHT22;6174;49.058;8.524;2022-12-04T07:10:48;3.80;99.90
12223;DHT22;6174;49.058;8.524;2022-12-04T07:13:15;3.80;99.90
12223;DHT22;6174;49.058;8.524;2022-12-04T07:15:42;3.80;99.90
12223;DHT22;6174;49.058;8.524;2022-12-04T07:18:09;3.80;99.90
12223;DHT22;6174;49.058;8.524;2022-12-04T07:20:38;3.80;99.90
12223;DHT22;6174;49.058;8.524;2022-12-04T07:23:06;3.80;99.90
12223;DHT22;6174;49.058;8.524;2022-12-04T07:25:32;3.90;99.90
12223;DHT22;6174;49.058;8.524;2022-12-04T07:28:01;3.90;99.90
12223;DHT22;6174;49.058;8.524;2022-12-04T07:30:27;3.90;99.90
12223;DHT22;6174;49.058;8.524;2022-12-04T07:32:54;3.90;99.90
12223;DHT22;6174;49.058;8.524;2022-12-04T07:35:21;3.90;99.90
12223;DHT22;6174;49.058;8.524;2022-12-04T07:37:48;3.90;99.90
12223;DHT22;6174;49.058;8.524;2022-12-04T07:40:15;3.80;99.90
12223;DHT22;6174;49.058;8.524;2022-12-04T07:42:41;3.90;99.90
12223;DHT22;6174;49.058;8.524;2022-12-04T07:45:10;3.90;99.90
12223;DHT22;6174;49.058;8.524;2022-12-04T07:47:37;3.90;99.90
12223;DHT22;6174;49.058;8.524;2022-12-04T07:50:05;3.90;99.90
12223;DHT22;6174;49.058;8.524;2022-12-04T07:52:34;3.90;99.90
12223;DHT22;6174;49.058;8.524;2022-12-04T07:55:01;4.10;99.90
12223;DHT22;6174;49.058;8.524;2022-12-04T07:57:28;3.90;99.90
12223;DHT22;6174;49.058;8.524;2022-12-04T07:59:55;3.90;99.90
12223;DHT22;6174;49.058;8.524;2022-12-04T08:02:23;3.90;99.90
12223;DHT22;6174;49.058;8.524;2022-12-04T08:04:49;3.90;99.90
12223;DHT22;6174;49.058;8.524;2022-12-04T08:07:17;3.90;99.90
12223;DHT22;6174;49.058;8.524;2022-12-04T08:09:43;3.90;99.90
12223;DHT22;6174;49.058;8.524;2022-12-04T08:12:10;3.90;99.90
12223;DHT22;6174;49.058;8.524;2022-12-04T08:14:37;3.90;99.90
12223;DHT22;6174;49.058;8.524;2022-12-04T08:17:04;3.90;99.90
12223;DHT22;6174;49.058;8.524;2022-12-04T08:19:32;3.90;99.90
12223;DHT22;6174;49.058;8.524;2022-12-04T08:21:59;3.90;99.90
12223;DHT22;6174;49.058;8.524;2022-12-04T08:24:25;3.90;99.90
12223;DHT22;6174;49.058;8.524;2022-12-04T08:26:52;3.90;99.90
12223;DHT22;6174;49.058;8.524;2022-12-04T08:29:19;3.90;99.90
12223;DHT22;6174;49.058;8.524;2022-12-04T08:31:46;3.90;99.90
12223;DHT22;6174;49.058;8.524;2022-12-04T08:34:13;3.90;99.90
12223;DHT22;6174;49.058;8.524;2022-12-04T08:36:41;4.00;99.90
12223;DHT22;6174;49.058;8.524;2022-12-04T08:39:09;4.00;99.90
12223;DHT22;6174;49.058;8.524;2022-12-04T08:41:36;4.00;99.90
12223;DHT22;6174;49.058;8.524;2022-12-04T08:44:03;4.00;99.90
12223;DHT22;6174;49.058;8.524;2022-12-04T08:46:29;4.00;99.90
12223;DHT22;6174;49.058;8.524;2022-12-04T08:48:56;4.10;99.90
12223;DHT22;6174;49.058;8.524;2022-12-04T08:51:25;4.10;99.90
12223;DHT22;6174;49.058;8.524;2022-12-04T08:53:55;4.10;99.90
12223;DHT22;6174;49.058;8.524;2022-12-04T08:56:22;4.10;99.90
12223;DHT22;6174;49.058;8.524;2022-12-04T08:58:49;4.10;99.90
12223;DHT22;6174;49.058;8.524;2022-12-04T09:01:16;4.10;99.90
12223;DHT22;6174;49.058;8.524;2022-12-04T09:03:44;4.10;99.90
12223;DHT22;6174;49.058;8.524;2022-12-04T09:06:13;4.10;99.90
12223;DHT22;6174;49.058;8.524;2022-12-04T09:08:40;4.10;99.90
12223;DHT22;6174;49.058;8.524;2022-12-04T09:11:11;4.10;99.90
12223;DHT22;6174;49.058;8.524;2022-12-04T09:13:39;4.10;99.90
12223;DHT22;6174;49.058;8.524;2022-12-04T09:16:08;4.10;99.90
12223;DHT22;6174;49.058;8.524;2022-12-04T09:18:36;4.10;99.90
12223;DHT22;6174;49.058;8.524;2022-12-04T09:21:06;4.10;99.90
12223;DHT22;6174;49.058;8.524;2022-12-04T09:23:34;4.10;99.90
12223;DHT22;6174;49.058;8.524;2022-12-04T09:26:01;4.10;99.90
12223;DHT22;6174;49.058;8.524;2022-12-04T09:28:30;4.10;99.90
12223;DHT22;6174;49.058;8.524;2022-12-04T09:30:58;4.10;99.90
12223;DHT22;6174;49.058;8.524;2022-12-04T09:33:25;4.20;99.90
12223;DHT22;6174;49.058;8.524;2022-12-04T09:35:52;4.20;99.90
12223;DHT22;6174;49.058;8.524;2022-12-04T09:38:19;4.20;99.90
12223;DHT22;6174;49.058;8.524;2022-12-04T09:40:51;4.20;99.90
12223;DHT22;6174;49.058;8.524;2022-12-04T09:43:27;4.20;99.90
12223;DHT22;6174;49.058;8.524;2022-12-04T09:46:02;4.20;99.90
12223;DHT22;6174;49.058;8.524;2022-12-04T09:48:34;4.20;99.90
12223;DHT22;6174;49.058;8.524;2022-12-04T09:51:02;4.40;99.90
12223;DHT22;6174;49.058;8.524;2022-12-04T09:53:37;4.20;99.90
12223;DHT22;6174;49.058;8.524;2022-12-04T09:56:10;4.20;99.90
12223;DHT22;6174;49.058;8.524;2022-12-04T09:58:40;4.20;99.90
12223;DHT22;6174;49.058;8.524;2022-12-04T10:01:20;4.50;99.90
12223;DHT22;6174;49.058;8.524;2022-12-04T10:03:47;4.20;99.90
12223;DHT22;6174;49.058;8.524;2022-12-04T10:06:18;4.20;99.90
12223;DHT22;6174;49.058;8.524;2022-12-04T10:08:50;4.20;99.90
12223;DHT22;6174;49.058;8.524;2022-12-04T10:11:24;4.30;99.90
12223;DHT22;6174;49.058;8.524;2022-12-04T10:14:04;4.20;99.90
12223;DHT22;6174;49.058;8.524;2022-12-04T10:19:32;4.20;99.90
12223;DHT22;6174;49.058;8.524;2022-12-04T10:22:09;4.20;99.90
12223;DHT22;6174;49.058;8.524;2022-12-04T10:24:42;4.20;99.90
12223;DHT22;6174;49.058;8.524;2022-12-04T10:27:13;4.20;99.90
12223;DHT22;6174;49.058;8.524;2022-12-04T10:29:41;4.20;99.90
12223;DHT22;6174;49.058;8.524;2022-12-04T10:32:17;4.20;99.90
12223;DHT22;6174;49.058;8.524;2022-12-04T10:34:47;4.20;99.90
12223;DHT22;6174;49.058;8.524;2022-12-04T10:37:14;4.30;99.90
12223;DHT22;6174;49.058;8.524;2022-12-04T10:39:45;4.20;99.90
12223;DHT22;6174;49.058;8.524;2022-12-04T10:42:20;4.20;99.90
12223;DHT22;6174;49.058;8.524;2022-12-04T10:44:49;4.20;99.90
12223;DHT22;6174;49.058;8.524;2022-12-04T10:47:17;4.10;99.90
12223;DHT22;6174;49.058;8.524;2022-12-04T10:49:47;4.20;99.90
12223;DHT22;6174;49.058;8.524;2022-12-04T10:52:14;4.10;99.90
12223;DHT22;6174;49.058;8.524;2022-12-04T10:54:45;4.10;99.90
12223;DHT22;6174;49.058;8.524;2022-12-04T10:57:13;4.10;99.90
12223;DHT22;6174;49.058;8.524;2022-12-04T10:59:48;4.30;99.90
12223;DHT22;6174;49.058;8.524;2022-12-04T11:02:20;4.20;99.90
12223;DHT22;6174;49.058;8.524;2022-12-04T11:04:53;4.30;99.90
12223;DHT22;6174;49.058;8.524;2022-12-04T11:07:22;4.20;99.90
12223;DHT22;6174;49.058;8.524;2022-12-04T11:09:55;4.20;99.90
12223;DHT22;6174;49.058;8.524;2022-12-04T11:12:23;4.20;99.90
12223;DHT22;6174;49.058;8.524;2022-12-04T11:15:07;4.20;99.90
12223;DHT22;6174;49.058;8.524;2022-12-04T11:17:39;4.10;99.90
12223;DHT22;6174;49.058;8.524;2022-12-04T11:20:14;4.20;99.90
12223;DHT22;6174;49.058;8.524;2022-12-04T11:22:49;4.20;99.90
12223;DHT22;6174;49.058;8.524;2022-12-04T11:25:18;4.20;99.90
12223;DHT22;6174;49.058;8.524;2022-12-04T11:27:47;4.20;99.90
12223;DHT22;6174;49.058;8.524;2022-12-04T11:30:19;4.20;99.90
12223;DHT22;6174;49.058;8.524;2022-12-04T11:32:47;4.20;99.90
12223;DHT22;6174;49.058;8.524;2022-12-04T11:35:16;4.20;99.90
12223;DHT22;6174;49.058;8.524;2022-12-04T11:37:51;4.20;99.90
12223;DHT22;6174;49.058;8.524;2022-12-04T11:40:20;4.30;99.90
12223;DHT22;6174;49.058;8.524;2022-12-04T11:43:02;4.20;99.90
12223;DHT22;6174;49.058;8.524;2022-12-04T11:45:30;4.30;99.90
12223;DHT22;6174;49.058;8.524;2022-12-04T11:48:03;4.30;99.90
12223;DHT22;6174;49.058;8.524;2022-12-04T11:50:37;4.30;99.90
12223;DHT22;6174;49.058;8.524;2022-12-04T11:53:13;4.30;99.90
12223;DHT22;6174;49.058;8.524;2022-12-04T11:55:50;4.30;99.90
12223;DHT22;6174;49.058;8.524;2022-12-04T11:58:39;4.40;99.90
12223;DHT22;6174;49.058;8.524;2022-12-04T12:01:19;4.40;99.90
12223;DHT22;6174;49.058;8.524;2022-12-04T12:04:04;4.40;99.90
12223;DHT22;6174;49.058;8.524;2022-12-04T12:06:35;4.40;99.90
12223;DHT22;6174;49.058;8.524;2022-12-04T12:09:19;4.50;99.90
12223;DHT22;6174;49.058;8.524;2022-12-04T12:11:52;4.50;99.90
12223;DHT22;6174;49.058;8.524;2022-12-04T12:14:27;4.50;99.90
12223;DHT22;6174;49.058;8.524;2022-12-04T12:17:02;4.50;99.90
12223;DHT22;6174;49.058;8.524;2022-12-04T12:19:51;4.50;99.90
12223;DHT22;6174;49.058;8.524;2022-12-04T12:22:32;4.50;99.90
12223;DHT22;6174;49.058;8.524;2022-12-04T12:25:09;4.50;99.90
12223;DHT22;6174;49.058;8.524;2022-12-04T12:27:49;4.50;99.90
12223;DHT22;6174;49.058;8.524;2022-12-04T12:30:21;4.60;99.90
12223;DHT22;6174;49.058;8.524;2022-12-04T12:33:01;4.90;99.90
12223;DHT22;6174;49.058;8.524;2022-12-04T12:35:34;4.50;99.90
12223;DHT22;6174;49.058;8.524;2022-12-04T12:38:05;4.60;99.90
12223;DHT22;6174;49.058;8.524;2022-12-04T12:40:39;4.60;99.90
12223;DHT22;6174;49.058;8.524;2022-12-04T12:43:12;4.60;99.90
12223;DHT22;6174;49.058;8.524;2022-12-04T12:45:44;4.60;99.90
12223;DHT22;6174;49.058;8.524;2022-12-04T12:48:22;4.60;99.90
12223;DHT22;6174;49.058;8.524;2022-12-04T12:50:54;4.60;99.90
12223;DHT22;6174;49.058;8.524;2022-12-04T12:53:25;4.60;99.90
12223;DHT22;6174;49.058;8.524;2022-12-04T12:55:54;4.60;99.90
12223;DHT22;6174;49.058;8.524;2022-12-04T12:58:27;4.60;99.90
12223;DHT22;6174;49.058;8.524;2022-12-04T13:00:59;4.60;99.90
12223;DHT22;6174;49.058;8.524;2022-12-04T13:03:34;4.60;99.90
12223;DHT22;6174;49.058;8.524;2022-12-04T13:06:08;4.60;99.90
12223;DHT22;6174;49.058;8.524;2022-12-04T13:08:42;4.50;99.90
12223;DHT22;6174;49.058;8.524;2022-12-04T13:11:11;4.50;99.90
12223;DHT22;6174;49.058;8.524;2022-12-04T13:13:42;4.50;99.90
12223;DHT22;6174;49.058;8.524;2022-12-04T13:16:14;4.40;99.90
12223;DHT22;6174;49.058;8.524;2022-12-04T13:18:47;4.40;99.90
12223;DHT22;6174;49.058;8.524;2022-12-04T13:21:28;4.30;99.90
12223;DHT22;6174;49.058;8.524;2022-12-04T13:24:25;4.30;99.90
12223;DHT22;6174;49.058;8.524;2022-12-04T13:27:00;4.30;99.90
12223;DHT22;6174;49.058;8.524;2022-12-04T13:29:41;4.40;99.90
12223;DHT22;6174;49.058;8.524;2022-12-04T13:32:35;4.40;99.90
12223;DHT22;6174;49.058;8.524;2022-12-04T13:35:16;4.40;99.90
12223;DHT22;6174;49.058;8.524;2022-12-04T13:37:57;4.40;99.90
12223;DHT22;6174;49.058;8.524;2022-12-04T13:40:33;4.40;99.90
12223;DHT22;6174;49.058;8.524;2022-12-04T13:43:16;4.40;99.90
12223;DHT22;6174;49.058;8.524;2022-12-04T13:45:46;4.40;99.90
12223;DHT22;6174;49.058;8.524;2022-12-04T13:48:29;4.40;99.90
12223;DHT22;6174;49.058;8.524;2022-12-04T13:51:05;4.30;99.90
12223;DHT22;6174;49.058;8.524;2022-12-04T13:53:36;4.30;99.90
12223;DHT22;6174;49.058;8.524;2022-12-04T13:56:05;4.30;99.90
12223;DHT22;6174;49.058;8.524;2022-12-04T13:58:34;4.30;99.90
12223;DHT22;6174;49.058;8.524;2022-12-04T14:01:04;4.30;99.90
12223;DHT22;6174;49.058;8.524;2022-12-04T14:03:45;4.30;99.90
12223;DHT22;6174;49.058;8.524;2022-12-04T14:06:21;4.30;99.90
12223;DHT22;6174;49.058;8.524;2022-12-04T14:08:54;4.30;99.90
12223;DHT22;6174;49.058;8.524;2022-12-04T14:11:21;4.20;99.90
12223;DHT22;6174;49.058;8.524;2022-12-04T14:13:50;4.20;99.90
12223;DHT22;6174;49.058;8.524;2022-12-04T14:16:20;4.20;99.90
12223;DHT22;6174;49.058;8.524;2022-12-04T14:18:50;4.20;99.90
12223;DHT22;6174;49.058;8.524;2022-12-04T14:21:18;4.30;99.90
12223;DHT22;6174;49.058;8.524;2022-12-04T14:23:45;4.40;99.90
12223;DHT22;6174;49.058;8.524;2022-12-04T14:26:22;4.40;99.90
12223;DHT22;6174;49.058;8.524;2022-12-04T14:28:49;4.40;99.90
12223;DHT22;6174;49.058;8.524;2022-12-04T14:31:24;4.40;99.90
12223;DHT22;6174;49.058;8.524;2022-12-04T14:33:58;4.30;99.90
12223;DHT22;6174;49.058;8.524;2022-12-04T14:36:26;4.30;99.90
12223;DHT22;6174;49.058;8.524;2022-12-04T14:39:02;4.20;99.90
12223;DHT22;6174;49.058;8.524;2022-12-04T14:41:31;4.20;99.90
12223;DHT22;6174;49.058;8.524;2022-12-04T14:43:58;4.20;99.90
12223;DHT22;6174;49.058;8.524;2022-12-04T14:46:35;4.20;99.90
12223;DHT22;6174;49.058;8.524;2022-12-04T14:49:17;4.20;99.90
12223;DHT22;6174;49.058;8.524;2022-12-04T14:51:52;4.20;99.90
12223;DHT22;6174;49.058;8.524;2022-12-04T14:54:27;4.20;99.90
12223;DHT22;6174;49.058;8.524;2022-12-04T14:57:06;4.20;99.90
12223;DHT22;6174;49.058;8.524;2022-12-04T14:59:41;4.20;99.90
12223;DHT22;6174;49.058;8.524;2022-12-04T15:02:12;4.20;99.90
12223;DHT22;6174;49.058;8.524;2022-12-04T15:04:40;4.20;99.90
12223;DHT22;6174;49.058;8.524;2022-12-04T15:07:16;4.20;99.90
12223;DHT22;6174;49.058;8.524;2022-12-04T15:09:49;4.20;99.90
12223;DHT22;6174;49.058;8.524;2022-12-04T15:12:40;4.20;99.90
12223;DHT22;6174;49.058;8.524;2022-12-04T15:15:16;4.30;99.90
12223;DHT22;6174;49.058;8.524;2022-12-04T15:17:54;4.20;99.90
12223;DHT22;6174;49.058;8.524;2022-12-04T15:20:22;4.30;99.90
12223;DHT22;6174;49.058;8.524;2022-12-04T15:22:49;4.20;99.90
12223;DHT22;6174;49.058;8.524;2022-12-04T15:25:18;4.20;99.90
12223;DHT22;6174;49.058;8.524;2022-12-04T15:27:49;4.10;99.90
12223;DHT22;6174;49.058;8.524;2022-12-04T15:30:18;4.10;99.90
12223;DHT22;6174;49.058;8.524;2022-12-04T15:32:48;4.10;99.90
12223;DHT22;6174;49.058;8.524;2022-12-04T15:35:19;4.10;99.90
12223;DHT22;6174;49.058;8.524;2022-12-04T15:37:48;4.10;99.90
12223;DHT22;6174;49.058;8.524;2022-12-04T15:40:20;4.10;99.90
12223;DHT22;6174;49.058;8.524;2022-12-04T15:42:49;4.10;99.90
12223;DHT22;6174;49.058;8.524;2022-12-04T15:45:23;4.10;99.90
12223;DHT22;6174;49.058;8.524;2022-12-04T15:47:52;4.10;99.90
12223;DHT22;6174;49.058;8.524;2022-12-04T15:50:21;4.00;99.90
12223;DHT22;6174;49.058;8.524;2022-12-04T15:52:55;4.10;99.90
12223;DHT22;6174;49.058;8.524;2022-12-04T15:55:23;4.00;99.90
12223;DHT22;6174;49.058;8.524;2022-12-04T15:57:55;4.00;99.90
12223;DHT22;6174;49.058;8.524;2022-12-04T16:00:24;4.00;99.90
12223;DHT22;6174;49.058;8.524;2022-12-04T16:02:52;4.00;99.90
12223;DHT22;6174;49.058;8.524;2022-12-04T16:05:27;4.00;99.90
12223;DHT22;6174;49.058;8.524;2022-12-04T16:07:56;4.00;99.90
12223;DHT22;6174;49.058;8.524;2022-12-04T16:10:24;4.00;99.90
12223;DHT22;6174;49.058;8.524;2022-12-04T16:12:54;4.00;99.90
12223;DHT22;6174;49.058;8.524;2022-12-04T16:15:21;4.00;99.90
12223;DHT22;6174;49.058;8.524;2022-12-04T16:17:49;4.00;99.90
12223;DHT22;6174;49.058;8.524;2022-12-04T16:20:16;4.00;99.90
12223;DHT22;6174;49.058;8.524;2022-12-04T16:22:44;4.10;99.90
12223;DHT22;6174;49.058;8.524;2022-12-04T16:25:12;4.10;99.90
12223;DHT22;6174;49.058;8.524;2022-12-04T16:27:38;4.10;99.90
12223;DHT22;6174;49.058;8.524;2022-12-04T16:30:08;4.10;99.90
12223;DHT22;6174;49.058;8.524;2022-12-04T16:32:35;4.10;99.90
12223;DHT22;6174;49.058;8.524;2022-12-04T16:35:02;4.10;99.90
12223;DHT22;6174;49.058;8.524;2022-12-04T16:37:29;4.10;99.90
12223;DHT22;6174;49.058;8.524;2022-12-04T16:39:56;4.10;99.90
12223;DHT22;6174;49.058;8.524;2022-12-04T16:42:24;4.10;99.90
12223;DHT22;6174;49.058;8.524;2022-12-04T16:44:51;4.10;99.90
12223;DHT22;6174;49.058;8.524;2022-12-04T16:47:20;4.10;99.90
12223;DHT22;6174;49.058;8.524;2022-12-04T16:49:48;4.10;99.90
12223;DHT22;6174;49.058;8.524;2022-12-04T16:52:15;4.10;99.90
12223;DHT22;6174;49.058;8.524;2022-12-04T16:54:42;4.10;99.90
12223;DHT22;6174;49.058;8.524;2022-12-04T16:57:09;4.10;99.90
12223;DHT22;6174;49.058;8.524;2022-12-04T16:59:36;4.10;99.90
12223;DHT22;6174;49.058;8.524;2022-12-04T17:02:03;4.10;99.90
12223;DHT22;6174;49.058;8.524;2022-12-04T17:04:32;4.10;99.90
12223;DHT22;6174;49.058;8.524;2022-12-04T17:06:59;4.10;99.90
12223;DHT22;6174;49.058;8.524;2022-12-04T17:09:26;4.10;99.90
12223;DHT22;6174;49.058;8.524;2022-12-04T17:11:53;4.10;99.90
12223;DHT22;6174;49.058;8.524;2022-12-04T17:14:19;4.10;99.90
12223;DHT22;6174;49.058;8.524;2022-12-04T17:16:46;4.10;99.90
12223;DHT22;6174;49.058;8.524;2022-12-04T17:19:13;4.10;99.90
12223;DHT22;6174;49.058;8.524;2022-12-04T17:21:41;4.10;99.90
12223;DHT22;6174;49.058;8.524;2022-12-04T17:24:09;4.10;99.90
12223;DHT22;6174;49.058;8.524;2022-12-04T17:26:36;4.10;99.90
12223;DHT22;6174;49.058;8.524;2022-12-04T17:29:03;4.10;99.90
12223;DHT22;6174;49.058;8.524;2022-12-04T17:31:29;4.10;99.90
12223;DHT22;6174;49.058;8.524;2022-12-04T17:33:56;4.00;99.90
12223;DHT22;6174;49.058;8.524;2022-12-04T17:36:24;4.00;99.90
12223;DHT22;6174;49.058;8.524;2022-12-04T17:38:54;4.00;99.90
12223;DHT22;6174;49.058;8.524;2022-12-04T17:41:21;4.00;99.90
12223;DHT22;6174;49.058;8.524;2022-12-04T17:43:48;4.00;99.90
12223;DHT22;6174;49.058;8.524;2022-12-04T17:46:18;4.10;99.90
12223;DHT22;6174;49.058;8.524;2022-12-04T17:48:46;4.10;99.90
12223;DHT22;6174;49.058;8.524;2022-12-04T17:51:15;4.00;99.90
12223;DHT22;6174;49.058;8.524;2022-12-04T17:53:42;4.00;99.90
12223;DHT22;6174;49.058;8.524;2022-12-04T17:56:12;4.00;99.90
12223;DHT22;6174;49.058;8.524;2022-12-04T17:58:40;4.00;99.90
12223;DHT22;6174;49.058;8.524;2022-12-04T18:01:09;4.10;99.90
12223;DHT22;6174;49.058;8.524;2022-12-04T18:03:39;4.00;99.90
12223;DHT22;6174;49.058;8.524;2022-12-04T18:06:11;4.00;99.90
12223;DHT22;6174;49.058;8.524;2022-12-04T18:08:39;4.10;99.90
12223;DHT22;6174;49.058;8.524;2022-12-04T18:11:06;4.10;99.90
12223;DHT22;6174;49.058;8.524;2022-12-04T18:13:34;4.00;99.90
12223;DHT22;6174;49.058;8.524;2022-12-04T18:16:02;4.00;99.90
12223;DHT22;6174;49.058;8.524;2022-12-04T18:18:42;4.10;99.90
12223;DHT22;6174;49.058;8.524;2022-12-04T18:21:13;4.00;99.90
12223;DHT22;6174;49.058;8.524;2022-12-04T18:23:40;4.00;99.90
12223;DHT22;6174;49.058;8.524;2022-12-04T18:26:10;4.00;99.90
12223;DHT22;6174;49.058;8.524;2022-12-04T18:28:39;4.00;99.90
12223;DHT22;6174;49.058;8.524;2022-12-04T18:31:07;4.00;99.90
12223;DHT22;6174;49.058;8.524;2022-12-04T18:33:36;4.00;99.90
12223;DHT22;6174;49.058;8.524;2022-12-04T18:36:03;4.10;99.90
12223;DHT22;6174;49.058;8.524;2022-12-04T18:38:31;4.10;99.90
12223;DHT22;6174;49.058;8.524;2022-12-04T18:41:00;4.10;99.90
12223;DHT22;6174;49.058;8.524;2022-12-04T18:43:27;4.10;99.90
12223;DHT22;6174;49.058;8.524;2022-12-04T18:46:00;4.10;99.90
12223;DHT22;6174;49.058;8.524;2022-12-04T18:48:27;4.10;99.90
12223;DHT22;6174;49.058;8.524;2022-12-04T18:50:54;4.10;99.90
12223;DHT22;6174;49.058;8.524;2022-12-04T18:53:21;4.10;99.90
12223;DHT22;6174;49.058;8.524;2022-12-04T18:55:49;4.10;99.90
12223;DHT22;6174;49.058;8.524;2022-12-04T18:58:16;4.10;99.90
12223;DHT22;6174;49.058;8.524;2022-12-04T19:00:43;4.10;99.90
12223;DHT22;6174;49.058;8.524;2022-12-04T19:03:11;4.10;99.90
12223;DHT22;6174;49.058;8.524;2022-12-04T19:05:46;4.10;99.90
12223;DHT22;6174;49.058;8.524;2022-12-04T19:08:13;4.00;99.90
12223;DHT22;6174;49.058;8.524;2022-12-04T19:10:40;4.00;99.90
12223;DHT22;6174;49.058;8.524;2022-12-04T19:13:07;4.10;99.90
12223;DHT22;6174;49.058;8.524;2022-12-04T19:15:33;4.10;99.90
12223;DHT22;6174;49.058;8.524;2022-12-04T19:18:01;4.10;99.90
12223;DHT22;6174;49.058;8.524;2022-12-04T19:20:29;4.00;99.90
12223;DHT22;6174;49.058;8.524;2022-12-04T19:22:56;4.20;99.90
12223;DHT22;6174;49.058;8.524;2022-12-04T19:25:23;4.10;99.90
12223;DHT22;6174;49.058;8.524;2022-12-04T19:27:49;4.10;99.90
12223;DHT22;6174;49.058;8.524;2022-12-04T19:30:16;4.20;99.90
12223;DHT22;6174;49.058;8.524;2022-12-04T19:32:43;4.20;99.90
12223;DHT22;6174;49.058;8.524;2022-12-04T19:35:10;4.10;99.90
12223;DHT22;6174;49.058;8.524;2022-12-04T19:37:38;4.20;99.90
12223;DHT22;6174;49.058;8.524;2022-12-04T19:40:06;4.30;99.90
12223;DHT22;6174;49.058;8.524;2022-12-04T19:42:33;4.30;99.90
12223;DHT22;6174;49.058;8.524;2022-12-04T19:44:59;4.20;99.90
12223;DHT22;6174;49.058;8.524;2022-12-04T19:47:26;4.10;99.90
12223;DHT22;6174;49.058;8.524;2022-12-04T19:49:53;4.10;99.90
12223;DHT22;6174;49.058;8.524;2022-12-04T19:52:20;4.10;99.90
12223;DHT22;6174;49.058;8.524;2022-12-04T19:54:48;4.10;99.90
12223;DHT22;6174;49.058;8.524;2022-12-04T19:57:15;4.10;99.90
12223;DHT22;6174;49.058;8.524;2022-12-04T19:59:41;4.10;99.90
12223;DHT22;6174;49.058;8.524;2022-12-04T20:02:09;4.10;99.90
12223;DHT22;6174;49.058;8.524;2022-12-04T20:04:36;4.10;99.90
12223;DHT22;6174;49.058;8.524;2022-12-04T20:07:03;4.10;99.90
12223;DHT22;6174;49.058;8.524;2022-12-04T20:09:30;4.10;99.90
12223;DHT22;6174;49.058;8.524;2022-12-04T20:11:58;4.10;99.90
12223;DHT22;6174;49.058;8.524;2022-12-04T20:14:25;4.10;99.90
12223;DHT22;6174;49.058;8.524;2022-12-04T20:16:52;4.10;99.90
12223;DHT22;6174;49.058;8.524;2022-12-04T20:19:19;4.10;99.90
12223;DHT22;6174;49.058;8.524;2022-12-04T20:21:46;4.10;99.90
12223;DHT22;6174;49.058;8.524;2022-12-04T20:24:15;4.10;99.90
12223;DHT22;6174;49.058;8.524;2022-12-04T20:26:43;4.20;99.90
12223;DHT22;6174;49.058;8.524;2022-12-04T20:29:13;4.20;99.90
12223;DHT22;6174;49.058;8.524;2022-12-04T20:31:42;4.10;99.90
12223;DHT22;6174;49.058;8.524;2022-12-04T20:34:11;4.10;99.90
12223;DHT22;6174;49.058;8.524;2022-12-04T20:36:40;4.10;99.90
12223;DHT22;6174;49.058;8.524;2022-12-04T20:39:09;4.10;99.90
12223;DHT22;6174;49.058;8.524;2022-12-04T20:41:37;4.20;99.90
12223;DHT22;6174;49.058;8.524;2022-12-04T20:44:07;4.20;99.90
12223;DHT22;6174;49.058;8.524;2022-12-04T20:46:37;4.20;99.90
12223;DHT22;6174;49.058;8.524;2022-12-04T20:49:06;4.20;99.90
12223;DHT22;6174;49.058;8.524;2022-12-04T20:51:35;4.20;99.90
12223;DHT22;6174;49.058;8.524;2022-12-04T20:54:02;4.20;99.90
12223;DHT22;6174;49.058;8.524;2022-12-04T20:56:31;4.20;99.90
12223;DHT22;6174;49.058;8.524;2022-12-04T20:59:00;4.20;99.90
12223;DHT22;6174;49.058;8.524;2022-12-04T21:01:27;4.20;99.90
12223;DHT22;6174;49.058;8.524;2022-12-04T21:03:57;4.20;99.90
12223;DHT22;6174;49.058;8.524;2022-12-04T21:06:27;4.20;99.90
12223;DHT22;6174;49.058;8.524;2022-12-04T21:08:55;4.20;99.90
12223;DHT22;6174;49.058;8.524;2022-12-04T21:11:23;4.20;99.90
12223;DHT22;6174;49.058;8.524;2022-12-04T21:13:50;4.20;99.90
12223;DHT22;6174;49.058;8.524;2022-12-04T21:16:34;4.20;99.90
12223;DHT22;6174;49.058;8.524;2022-12-04T21:19:03;4.30;99.90
12223;DHT22;6174;49.058;8.524;2022-12-04T21:21:30;4.20;99.90
12223;DHT22;6174;49.058;8.524;2022-12-04T21:23:57;4.20;99.90
12223;DHT22;6174;49.058;8.524;2022-12-04T21:26:24;4.20;99.90
12223;DHT22;6174;49.058;8.524;2022-12-04T21:28:53;4.10;99.90
12223;DHT22;6174;49.058;8.524;2022-12-04T21:31:20;4.10;99.90
12223;DHT22;6174;49.058;8.524;2022-12-04T21:33:47;4.20;99.90
12223;DHT22;6174;49.058;8.524;2022-12-04T21:36:15;4.20;99.90
12223;DHT22;6174;49.058;8.524;2022-12-04T21:38:42;4.20;99.90
12223;DHT22;6174;49.058;8.524;2022-12-04T21:41:09;4.20;99.90
12223;DHT22;6174;49.058;8.524;2022-12-04T21:43:56;4.20;99.90
12223;DHT22;6174;49.058;8.524;2022-12-04T21:46:23;4.20;99.90
12223;DHT22;6174;49.058;8.524;2022-12-04T21:48:50;4.20;99.90
12223;DHT22;6174;49.058;8.524;2022-12-04T21:51:18;4.20;99.90
12223;DHT22;6174;49.058;8.524;2022-12-04T21:53:45;4.20;99.90
12223;DHT22;6174;49.058;8.524;2022-12-04T21:56:12;4.20;99.90
12223;DHT22;6174;49.058;8.524;2022-12-04T21:58:39;4.20;99.90
12223;DHT22;6174;49.058;8.524;2022-12-04T22:01:08;4.20;99.90
12223;DHT22;6174;49.058;8.524;2022-12-04T22:03:34;4.20;99.90
12223;DHT22;6174;49.058;8.524;2022-12-04T22:06:01;4.20;99.90
12223;DHT22;6174;49.058;8.524;2022-12-04T22:08:29;4.20;99.90
12223;DHT22;6174;49.058;8.524;2022-12-04T22:10:56;4.20;99.90
12223;DHT22;6174;49.058;8.524;2022-12-04T22:13:23;4.20;99.90
12223;DHT22;6174;49.058;8.524;2022-12-04T22:15:50;4.10;99.90
12223;DHT22;6174;49.058;8.524;2022-12-04T22:18:16;4.20;99.90
12223;DHT22;6174;49.058;8.524;2022-12-04T22:20:43;4.20;99.90
12223;DHT22;6174;49.058;8.524;2022-12-04T22:23:10;4.20;99.90